createdAt,value
2023-06-12T00:02:23.287Z,87.00
2023-06-12T00:04:50.846Z,86.80
2023-06-12T00:07:17.805Z,86.80
2023-06-12T00:09:44.608Z,86.90
2023-06-12T00:12:11.915Z,87.50
2023-06-12T00:14:40.111Z,87.80
2023-06-12T00:17:06.903Z,87.80
2023-06-12T00:19:34.152Z,87.80
2023-06-12T00:22:01.323Z,87.60
2023-06-12T00:24:28.058Z,87.50
2023-06-12T00:26:54.795Z,87.50
2023-06-12T00:29:21.548Z,87.60
2023-06-12T00:31:48.341Z,87.40
2023-06-12T00:34:15.208Z,87.30
2023-06-12T00:36:43.901Z,87.20
2023-06-12T00:39:12.009Z,87.80
2023-06-12T00:41:39.761Z,88.00
2023-06-12T00:44:07.072Z,88.00
2023-06-12T00:46:33.840Z,87.90
2023-06-12T00:49:02.693Z,87.80
2023-06-12T00:51:29.596Z,87.80
2023-06-12T00:53:57.882Z,87.70
2023-06-12T00:56:24.721Z,87.70
2023-06-12T00:58:53.673Z,87.60
2023-06-12T01:01:26.372Z,87.50
2023-06-12T01:03:57.484Z,87.50
2023-06-12T01:06:31.569Z,87.50
2023-06-12T01:09:32.574Z,88.00
2023-06-12T01:11:59.373Z,88.40
2023-06-12T01:14:27.240Z,88.30
2023-06-12T01:16:54.290Z,88.10
2023-06-12T01:19:21.358Z,87.90
2023-06-12T01:21:50.097Z,87.90
2023-06-12T01:24:32.203Z,87.80
2023-06-12T01:27:16.090Z,87.70
2023-06-12T01:29:57.891Z,87.70
2023-06-12T01:32:25.409Z,87.70
2023-06-12T01:34:58.454Z,88.40
2023-06-12T01:37:37.507Z,88.30
2023-06-12T01:40:09.624Z,88.30
2023-06-12T01:42:36.782Z,88.30
2023-06-12T01:45:04.238Z,88.30
2023-06-12T01:47:31.064Z,88.00
2023-06-12T01:49:57.899Z,87.90
2023-06-12T01:52:24.678Z,87.80
2023-06-12T01:54:51.470Z,87.80
2023-06-12T01:57:21.267Z,87.80
2023-06-12T01:59:52.757Z,87.80
2023-06-12T02:02:19.553Z,87.80
2023-06-12T02:04:46.843Z,88.90
2023-06-12T02:07:13.912Z,88.40
2023-06-12T02:09:41.424Z,88.40
2023-06-12T02:12:08.989Z,88.30
2023-06-12T02:14:35.764Z,88.10
2023-06-12T02:17:05.050Z,88.00
2023-06-12T02:19:33.688Z,87.80
2023-06-12T02:22:00.578Z,87.90
2023-06-12T02:24:29.236Z,87.90
2023-06-12T02:26:56.037Z,87.90
2023-06-12T02:29:22.884Z,87.90
2023-06-12T02:31:49.651Z,88.10
2023-06-12T02:34:17.963Z,88.50
2023-06-12T02:36:47.361Z,88.60
2023-06-12T02:39:14.292Z,88.40
2023-06-12T02:41:47.373Z,88.20
2023-06-12T02:44:14.376Z,88.00
2023-06-12T02:46:57.839Z,87.90
2023-06-12T02:49:26.371Z,87.80
2023-06-12T02:51:53.243Z,87.90
2023-06-12T02:54:21.760Z,87.90
2023-06-12T02:56:49.272Z,88.00
2023-06-12T02:59:18.801Z,88.10
2023-06-12T03:01:45.900Z,88.00
2023-06-12T03:04:14.169Z,88.40
2023-06-12T03:06:40.977Z,88.50
2023-06-12T03:09:09.995Z,88.40
2023-06-12T03:11:37.087Z,88.40
2023-06-12T03:14:04.792Z,88.00
2023-06-12T03:16:31.848Z,88.60
2023-06-12T03:18:58.674Z,87.90
2023-06-12T03:21:25.541Z,87.80
2023-06-12T03:23:52.577Z,88.00
2023-06-12T03:26:20.577Z,88.10
2023-06-12T03:28:47.558Z,88.20
2023-06-12T03:31:15.146Z,88.40
2023-06-12T03:33:41.983Z,88.30
2023-06-12T03:36:08.753Z,88.60
2023-06-12T03:38:35.529Z,88.40
2023-06-12T03:41:02.316Z,88.30
2023-06-12T03:43:29.084Z,88.10
2023-06-12T03:45:55.915Z,87.90
2023-06-12T03:48:22.662Z,88.00
2023-06-12T03:50:50.106Z,88.00
2023-06-12T03:53:17.117Z,88.00
2023-06-12T03:55:44.239Z,88.10
2023-06-12T03:58:11.406Z,88.50
2023-06-12T04:00:38.168Z,88.50
2023-06-12T04:03:05.234Z,88.40
2023-06-12T04:05:32.633Z,88.70
2023-06-12T04:07:59.414Z,88.60
2023-06-12T04:10:26.145Z,88.60
2023-06-12T04:12:53.001Z,89.50
2023-06-12T04:15:21.324Z,88.10
2023-06-12T04:17:48.054Z,88.00
2023-06-12T04:20:15.323Z,88.00
2023-06-12T04:22:42.326Z,88.30
2023-06-12T04:25:09.375Z,88.30
2023-06-12T04:27:36.189Z,88.50
2023-06-12T04:30:03.983Z,88.50
2023-06-12T04:32:31.103Z,88.60
2023-06-12T04:34:58.063Z,88.80
2023-06-12T04:37:25.999Z,88.80
2023-06-12T04:39:53.475Z,88.60
2023-06-12T04:42:20.304Z,88.40
2023-06-12T04:44:50.128Z,88.30
2023-06-12T04:47:17.647Z,88.10
2023-06-12T04:49:46.441Z,88.10
2023-06-12T04:52:13.623Z,88.20
2023-06-12T04:54:42.310Z,88.30
2023-06-12T04:57:13.305Z,88.70
2023-06-12T04:59:40.837Z,88.70
2023-06-12T05:02:08.550Z,88.80
2023-06-12T05:04:38.215Z,88.70
2023-06-12T05:07:06.961Z,89.70
2023-06-12T05:09:33.715Z,88.70
2023-06-12T05:12:02.158Z,88.50
2023-06-12T05:14:29.212Z,88.30
2023-06-12T05:16:57.202Z,88.90
2023-06-12T05:19:24.945Z,88.20
2023-06-12T05:21:52.101Z,88.20
2023-06-12T05:24:18.998Z,87.50
2023-06-12T05:26:46.005Z,89.00
2023-06-12T05:29:12.742Z,89.00
2023-06-12T05:31:39.502Z,89.20
2023-06-12T05:34:07.362Z,88.90
2023-06-12T05:36:34.429Z,88.50
2023-06-12T05:39:01.160Z,87.00
2023-06-12T05:41:27.961Z,84.50
2023-06-12T05:43:55.928Z,73.30
2023-06-12T05:46:22.740Z,75.20
2023-06-12T05:48:51.139Z,78.00
2023-06-12T05:51:17.857Z,77.20
2023-06-12T05:53:50.046Z,74.60
2023-06-12T05:56:19.525Z,72.70
2023-06-12T05:58:46.957Z,73.10
2023-06-12T06:01:18.610Z,74.50
2023-06-12T06:03:46.546Z,75.00
2023-06-12T06:06:13.994Z,74.20
2023-06-12T06:08:41.220Z,73.90
2023-06-12T06:11:08.272Z,73.80
2023-06-12T06:13:35.042Z,73.90
2023-06-12T06:16:03.087Z,73.70
2023-06-12T06:18:30.382Z,73.90
2023-06-12T06:20:57.329Z,74.00
2023-06-12T06:23:26.962Z,74.80
2023-06-12T06:25:56.433Z,74.30
2023-06-12T06:28:24.975Z,75.00
2023-06-12T06:30:52.688Z,75.10
2023-06-12T06:33:22.451Z,75.50
2023-06-12T06:35:49.321Z,75.60
2023-06-12T06:38:21.057Z,75.40
2023-06-12T06:40:48.758Z,76.20
2023-06-12T06:43:15.885Z,76.40
2023-06-12T06:45:43.114Z,77.60
2023-06-12T06:48:10.298Z,79.60
2023-06-12T06:50:37.260Z,79.20
2023-06-12T06:53:04.324Z,79.20
2023-06-12T06:55:31.529Z,79.20
2023-06-12T06:57:58.724Z,78.00
2023-06-12T07:00:28.000Z,77.20
2023-06-12T07:02:55.774Z,77.60
2023-06-12T07:05:22.643Z,77.10
2023-06-12T07:08:01.253Z,77.10
2023-06-12T07:10:28.995Z,77.80
2023-06-12T07:12:58.399Z,77.60
2023-06-12T07:15:26.936Z,78.20
2023-06-12T07:17:53.878Z,78.20
2023-06-12T07:20:21.231Z,78.10
2023-06-12T07:22:48.560Z,78.10
2023-06-12T07:25:15.538Z,78.70
2023-06-12T07:27:42.447Z,78.20
2023-06-12T07:30:10.980Z,78.20
2023-06-12T07:32:37.787Z,78.50
2023-06-12T07:35:05.602Z,78.60
2023-06-12T07:37:36.963Z,78.60
2023-06-12T07:40:06.091Z,79.10
2023-06-12T07:42:33.892Z,79.30
2023-06-12T07:45:00.848Z,80.30
2023-06-12T07:47:27.919Z,80.00
2023-06-12T07:49:55.009Z,80.30
2023-06-12T07:52:22.169Z,81.00
2023-06-12T07:54:49.817Z,81.90
2023-06-12T07:57:16.612Z,81.40
2023-06-12T07:59:45.618Z,81.60
2023-06-12T08:02:12.695Z,82.20
2023-06-12T08:04:41.794Z,82.40
2023-06-12T08:07:12.793Z,83.30
2023-06-12T08:09:41.283Z,83.60
2023-06-12T08:12:08.715Z,83.20
2023-06-12T08:14:35.568Z,83.50
2023-06-12T08:17:02.795Z,84.30
2023-06-12T08:19:30.028Z,84.80
2023-06-12T08:21:56.810Z,84.00
2023-06-12T08:24:23.677Z,83.80
2023-06-12T08:26:50.464Z,85.30
2023-06-12T08:29:17.216Z,87.10
2023-06-12T08:31:43.922Z,88.90
2023-06-12T08:34:10.684Z,88.60
2023-06-12T08:36:38.109Z,89.20
2023-06-12T08:39:05.353Z,89.20
2023-06-12T08:41:32.857Z,89.30
2023-06-12T08:44:00.842Z,89.30
2023-06-12T08:46:30.680Z,89.60
2023-06-12T08:49:00.978Z,89.80
2023-06-12T08:51:28.867Z,89.10
2023-06-12T08:53:56.152Z,89.00
2023-06-12T08:56:23.072Z,89.30
2023-06-12T08:58:50.118Z,89.60
2023-06-12T09:01:17.059Z,90.20
2023-06-12T09:03:46.346Z,89.80
2023-06-12T09:06:13.106Z,89.40
2023-06-12T09:08:40.687Z,90.10
2023-06-12T09:11:07.523Z,89.50
2023-06-12T09:13:42.388Z,89.30
2023-06-12T09:16:13.951Z,89.80
2023-06-12T09:18:51.214Z,89.40
2023-06-12T09:21:19.211Z,88.90
2023-06-12T09:23:46.738Z,89.10
2023-06-12T09:26:17.111Z,88.50
2023-06-12T09:28:44.193Z,88.60
2023-06-12T09:31:11.521Z,90.00
2023-06-12T09:33:41.350Z,89.10
2023-06-12T09:36:08.719Z,89.50
2023-06-12T09:38:36.354Z,89.30
2023-06-12T09:41:05.442Z,89.50
2023-06-12T09:43:34.824Z,90.10
2023-06-12T09:46:07.303Z,90.40
2023-06-12T09:48:40.390Z,90.00
2023-06-12T09:51:08.672Z,90.20
2023-06-12T09:53:37.832Z,90.50
2023-06-12T09:56:09.397Z,89.20
2023-06-12T09:58:40.580Z,89.60
2023-06-12T10:01:08.794Z,90.20
2023-06-12T10:03:41.123Z,90.30
2023-06-12T10:06:08.918Z,89.40
2023-06-12T10:08:37.203Z,88.10
2023-06-12T10:11:05.053Z,88.70
2023-06-12T10:13:33.454Z,88.50
2023-06-12T10:16:00.530Z,88.60
2023-06-12T10:18:27.331Z,87.80
2023-06-12T10:20:54.406Z,88.80
2023-06-12T10:23:22.288Z,88.30
2023-06-12T10:25:49.011Z,88.20
2023-06-12T10:28:16.821Z,88.60
2023-06-12T10:31:08.813Z,87.40
2023-06-12T10:33:36.095Z,86.30
2023-06-12T10:36:11.871Z,86.20
2023-06-12T10:39:08.135Z,86.20
2023-06-12T10:41:35.065Z,85.50
2023-06-12T10:44:25.870Z,85.70
2023-06-12T10:46:52.839Z,85.80
2023-06-12T10:49:19.579Z,86.20
2023-06-12T10:51:52.489Z,86.30
2023-06-12T10:54:26.586Z,86.30
2023-06-12T10:56:58.643Z,87.30
2023-06-12T10:59:35.292Z,87.40
2023-06-12T11:02:05.971Z,88.90
2023-06-12T11:04:39.423Z,88.30
2023-06-12T11:07:08.300Z,88.20
2023-06-12T11:09:41.404Z,88.00
2023-06-12T11:12:09.362Z,87.90
2023-06-12T11:14:37.097Z,87.70
2023-06-12T11:17:04.714Z,87.10
2023-06-12T11:19:32.472Z,86.90
2023-06-12T11:21:59.216Z,88.10
2023-06-12T11:24:26.020Z,89.10
2023-06-12T11:26:53.389Z,89.10
2023-06-12T11:29:21.422Z,90.00
2023-06-12T11:31:51.901Z,89.80
2023-06-12T11:34:18.757Z,89.30
2023-06-12T11:36:45.599Z,88.90
2023-06-12T11:41:50.006Z,88.40
2023-06-12T11:44:18.055Z,87.80
2023-06-12T11:46:45.576Z,89.20
2023-06-12T11:49:13.821Z,88.00
2023-06-12T11:51:40.770Z,87.50
2023-06-12T11:54:10.027Z,87.10
2023-06-12T11:59:11.544Z,86.70
2023-06-12T12:01:39.133Z,86.50
2023-06-12T12:04:08.407Z,86.60
2023-06-12T12:06:53.689Z,90.70
2023-06-12T12:09:26.469Z,88.90
2023-06-12T12:11:54.102Z,87.50
2023-06-12T12:14:21.657Z,86.90
2023-06-12T12:16:48.828Z,91.50
2023-06-12T12:19:28.916Z,88.00
2023-06-12T12:21:58.939Z,85.10
2023-06-12T12:24:25.934Z,85.10
2023-06-12T12:26:53.453Z,85.10
2023-06-12T12:29:23.312Z,85.00
2023-06-12T12:31:50.316Z,84.50
2023-06-12T12:34:17.234Z,83.80
2023-06-12T12:36:44.088Z,82.90
2023-06-12T12:39:11.326Z,82.70
2023-06-12T12:41:39.236Z,81.70
2023-06-12T12:44:06.877Z,81.70
2023-06-12T12:46:33.907Z,82.10
2023-06-12T12:49:00.699Z,82.00
2023-06-12T12:51:27.492Z,81.10
2023-06-12T12:53:54.572Z,82.20
2023-06-12T12:56:21.431Z,82.90
2023-06-12T12:58:48.211Z,82.70
2023-06-12T13:01:15.139Z,82.30
2023-06-12T13:03:42.382Z,82.00
2023-06-12T13:06:09.918Z,81.70
2023-06-12T13:08:46.475Z,80.70
2023-06-12T13:11:13.302Z,80.50
2023-06-12T13:13:40.021Z,80.70
2023-06-12T13:16:08.083Z,80.50
2023-06-12T13:18:35.967Z,80.10
2023-06-12T13:21:03.269Z,79.90
2023-06-12T13:23:29.968Z,80.60
2023-06-12T13:25:56.837Z,79.40
2023-06-12T13:28:23.623Z,79.60
2023-06-12T13:30:50.368Z,78.20
2023-06-12T13:33:17.204Z,78.20
2023-06-12T13:35:44.341Z,78.80
2023-06-12T13:38:11.583Z,78.30
2023-06-12T13:40:39.823Z,78.20
2023-06-12T13:43:08.765Z,78.10
2023-06-12T13:45:35.664Z,77.40
2023-06-12T13:48:04.438Z,77.50
2023-06-12T13:50:31.836Z,76.60
2023-06-12T13:52:58.754Z,76.50
2023-06-12T13:55:25.836Z,75.60
2023-06-12T13:57:55.219Z,75.00
2023-06-12T14:00:23.118Z,74.80
2023-06-12T14:02:52.443Z,74.60
2023-06-12T14:05:19.664Z,74.10
2023-06-12T14:07:47.461Z,73.60
2023-06-12T14:10:17.350Z,73.00
2023-06-12T14:12:46.456Z,72.30
2023-06-12T14:15:13.210Z,71.80
2023-06-12T14:17:40.998Z,71.50
2023-06-12T14:20:10.259Z,70.60
2023-06-12T14:22:37.197Z,71.30
2023-06-12T14:25:05.250Z,70.40
2023-06-12T14:27:32.961Z,70.90
2023-06-12T14:29:59.994Z,70.10
2023-06-12T14:32:27.106Z,70.50
2023-06-12T14:34:53.889Z,69.00
2023-06-12T14:37:20.790Z,68.60
2023-06-12T14:39:47.512Z,68.70
2023-06-12T14:42:14.413Z,69.20
2023-06-12T14:44:42.208Z,69.30
2023-06-12T14:47:09.822Z,69.00
2023-06-12T14:49:37.180Z,68.70
2023-06-12T14:52:06.576Z,68.60
2023-06-12T14:54:36.787Z,67.40
2023-06-12T14:57:05.132Z,67.40
2023-06-12T14:59:32.303Z,67.60
2023-06-12T15:01:59.427Z,70.60
2023-06-12T15:04:26.768Z,68.30
2023-06-12T15:06:54.010Z,67.40
2023-06-12T15:09:21.368Z,67.40
2023-06-12T15:11:49.126Z,66.80
2023-06-12T15:14:15.961Z,67.60
2023-06-12T15:16:43.606Z,69.60
2023-06-12T15:19:11.660Z,70.80
2023-06-12T15:21:38.818Z,71.40
2023-06-12T15:24:06.107Z,72.90
2023-06-12T15:26:32.920Z,73.50
2023-06-12T15:28:59.732Z,75.40
2023-06-12T15:31:26.821Z,76.40
2023-06-12T15:33:54.908Z,76.00
2023-06-12T15:36:21.930Z,76.50
2023-06-12T15:38:49.070Z,75.60
2023-06-12T15:41:16.095Z,76.30
2023-06-12T15:43:43.855Z,76.60
2023-06-12T15:46:11.882Z,76.90
2023-06-12T15:48:43.208Z,76.50
2023-06-12T15:51:12.239Z,76.30
2023-06-12T15:53:39.811Z,76.50
2023-06-12T15:56:07.850Z,76.00
2023-06-12T15:58:35.776Z,75.30
2023-06-12T16:01:02.593Z,75.90
2023-06-12T16:03:29.424Z,77.40
2023-06-12T16:05:56.303Z,79.00
2023-06-12T16:08:23.107Z,80.10
2023-06-12T16:10:49.958Z,80.70
2023-06-12T16:13:16.723Z,81.70
2023-06-12T16:15:44.395Z,83.10
2023-06-12T16:18:11.266Z,83.60
2023-06-12T16:20:38.572Z,83.50
2023-06-12T16:23:05.389Z,82.70
2023-06-12T16:25:32.703Z,81.70
2023-06-12T16:28:03.571Z,81.10
2023-06-12T16:30:31.132Z,79.60
2023-06-12T16:33:01.508Z,79.30
2023-06-12T16:35:28.388Z,79.00
2023-06-12T16:37:58.489Z,78.40
2023-06-12T16:40:25.504Z,77.90
2023-06-12T16:42:52.314Z,77.60
2023-06-12T16:45:19.101Z,77.10
2023-06-12T16:47:46.556Z,76.70
2023-06-12T16:50:15.581Z,76.30
2023-06-12T16:52:43.934Z,76.10
2023-06-12T16:55:12.241Z,75.30
2023-06-12T16:57:39.732Z,75.00
2023-06-12T17:00:09.501Z,74.90
2023-06-12T17:02:36.993Z,75.10
2023-06-12T17:05:04.019Z,73.80
2023-06-12T17:07:31.107Z,73.80
2023-06-12T17:09:59.994Z,74.70
2023-06-12T17:12:26.729Z,74.60
2023-06-12T17:14:53.538Z,74.60
2023-06-12T17:17:20.378Z,74.80
2023-06-12T17:19:47.231Z,74.70
2023-06-12T17:22:15.508Z,75.00
2023-06-12T17:24:42.430Z,74.90
2023-06-12T17:27:09.216Z,75.80
2023-06-12T17:29:38.514Z,76.50
2023-06-12T17:32:07.494Z,75.50
2023-06-12T17:34:34.347Z,75.60
2023-06-12T17:37:01.203Z,75.20
2023-06-12T17:39:28.620Z,75.00
2023-06-12T17:41:55.323Z,75.00
2023-06-12T17:44:22.077Z,75.60
2023-06-12T17:46:48.779Z,75.90
2023-06-12T17:49:16.955Z,76.10
2023-06-12T17:51:47.473Z,76.10
2023-06-12T17:54:15.215Z,76.10
2023-06-12T17:56:42.234Z,76.70
2023-06-12T17:59:09.032Z,76.80
2023-06-12T18:01:35.905Z,77.30
2023-06-12T18:04:05.150Z,77.40
2023-06-12T18:06:33.451Z,78.40
2023-06-12T18:09:00.356Z,77.80
2023-06-12T18:11:27.388Z,78.10
2023-06-12T18:13:54.354Z,80.50
2023-06-12T18:16:22.990Z,81.30
2023-06-12T18:18:50.537Z,81.40
2023-06-12T18:21:19.145Z,80.80
2023-06-12T18:23:46.150Z,79.30
2023-06-12T18:26:13.213Z,81.80
2023-06-12T18:28:39.968Z,82.00
2023-06-12T18:31:06.802Z,81.30
2023-06-12T18:33:33.654Z,80.40
2023-06-12T18:36:00.532Z,79.90
2023-06-12T18:38:27.300Z,80.50
2023-06-12T18:40:54.018Z,80.70
2023-06-12T18:43:20.830Z,80.10
2023-06-12T18:45:49.128Z,79.90
2023-06-12T18:48:15.986Z,80.10
2023-06-12T18:50:42.819Z,80.70
2023-06-12T18:53:09.839Z,80.50
2023-06-12T18:55:38.160Z,81.40
2023-06-12T18:58:05.103Z,83.60
2023-06-12T19:00:32.027Z,85.10
2023-06-12T19:03:01.043Z,85.60
2023-06-12T19:05:28.207Z,86.00
2023-06-12T19:07:55.399Z,85.80
2023-06-12T19:10:24.498Z,84.70
2023-06-12T19:12:53.896Z,85.10
2023-06-12T19:15:21.438Z,87.50
2023-06-12T19:17:48.448Z,90.20
2023-06-12T19:20:15.632Z,85.60
2023-06-12T19:22:42.462Z,86.90
2023-06-12T19:25:09.378Z,85.90
2023-06-12T19:27:36.464Z,85.40
2023-06-12T19:30:03.857Z,86.90
2023-06-12T19:32:30.670Z,85.70
2023-06-12T19:34:57.513Z,85.20
2023-06-12T19:37:24.336Z,85.10
2023-06-12T19:39:52.870Z,84.50
2023-06-12T19:42:20.299Z,84.50
2023-06-12T19:44:47.596Z,84.60
2023-06-12T19:47:14.490Z,84.70
2023-06-12T19:49:41.325Z,84.50
2023-06-12T19:52:08.162Z,84.30
2023-06-12T19:54:34.897Z,84.10
2023-06-12T19:57:04.167Z,84.00
2023-06-12T19:59:35.962Z,84.70
2023-06-12T20:02:06.734Z,85.80
2023-06-12T20:04:34.008Z,86.40
2023-06-12T20:07:01.528Z,85.90
2023-06-12T20:09:28.292Z,87.40
2023-06-12T20:11:55.069Z,90.70
2023-06-12T20:14:22.669Z,88.40
2023-06-12T20:16:49.650Z,88.90
2023-06-12T20:19:16.715Z,88.90
2023-06-12T20:21:43.510Z,89.40
2023-06-12T20:24:10.623Z,88.90
2023-06-12T20:26:38.366Z,89.40
2023-06-12T20:29:05.532Z,89.50
2023-06-12T20:31:32.454Z,89.60
2023-06-12T20:33:59.358Z,88.90
2023-06-12T20:36:26.118Z,89.80
2023-06-12T20:38:53.720Z,88.10
2023-06-12T20:41:21.751Z,88.40
2023-06-12T20:43:48.856Z,88.60
2023-06-12T20:46:15.868Z,87.80
2023-06-12T20:48:42.619Z,87.00
2023-06-12T20:51:09.427Z,88.00
2023-06-12T20:53:36.245Z,88.40
2023-06-12T20:56:03.010Z,87.50
2023-06-12T20:58:29.719Z,87.30
2023-06-12T21:00:56.893Z,87.30
2023-06-12T21:03:24.290Z,86.40
2023-06-12T21:05:52.400Z,85.90
2023-06-12T21:08:19.192Z,85.50
2023-06-12T21:10:45.976Z,85.50
2023-06-12T21:13:12.828Z,85.20
2023-06-12T21:15:41.894Z,84.90
2023-06-12T21:18:08.853Z,85.00
2023-06-12T21:20:35.660Z,84.90
2023-06-12T21:23:03.875Z,84.80
2023-06-12T21:25:30.718Z,85.10
2023-06-12T21:27:57.597Z,86.90
2023-06-12T21:30:24.755Z,88.30
2023-06-12T21:32:54.142Z,86.80
2023-06-12T21:35:22.096Z,86.50
2023-06-12T21:37:49.171Z,86.10
2023-06-12T21:40:16.093Z,86.10
2023-06-12T21:42:43.280Z,86.00
2023-06-12T21:45:10.925Z,85.70
2023-06-12T21:47:37.895Z,85.60
2023-06-12T21:50:05.152Z,85.60
2023-06-12T21:52:31.970Z,85.70
2023-06-12T21:54:59.069Z,85.70
2023-06-12T21:57:25.936Z,85.80
2023-06-12T21:59:53.482Z,85.70
2023-06-12T22:02:20.344Z,85.70
2023-06-12T22:04:47.168Z,85.60
2023-06-12T22:07:14.069Z,85.50
2023-06-12T22:09:41.271Z,85.40
2023-06-12T22:12:09.420Z,85.40
2023-06-12T22:14:36.391Z,85.30
2023-06-12T22:17:03.584Z,84.90
2023-06-12T22:19:30.429Z,84.70
2023-06-12T22:21:57.349Z,84.60
2023-06-12T22:24:24.514Z,84.70
2023-06-12T22:26:51.395Z,85.00
2023-06-12T22:29:18.949Z,85.10
2023-06-12T22:31:45.877Z,85.00
2023-06-12T22:34:12.788Z,85.10
2023-06-12T22:36:40.182Z,85.00
2023-06-12T22:39:07.776Z,85.00
2023-06-12T22:41:34.480Z,85.10
2023-06-12T22:44:01.258Z,85.20
2023-06-12T22:46:28.120Z,85.20
2023-06-12T22:48:56.972Z,85.30
2023-06-12T22:51:23.738Z,85.50
2023-06-12T22:53:50.435Z,85.60
2023-06-12T22:56:17.132Z,85.70
2023-06-12T22:58:43.881Z,86.00
2023-06-12T23:01:10.663Z,85.90
2023-06-12T23:03:37.408Z,85.80
2023-06-12T23:06:06.449Z,85.80
2023-06-12T23:08:34.301Z,85.60
2023-06-12T23:11:01.135Z,85.60
2023-06-12T23:13:28.348Z,85.70
2023-06-12T23:15:55.889Z,85.90
2023-06-12T23:18:25.010Z,86.10
2023-06-12T23:20:51.872Z,86.20
2023-06-12T23:23:21.333Z,86.20
2023-06-12T23:25:49.283Z,86.20
2023-06-12T23:28:17.817Z,87.10
2023-06-12T23:30:44.604Z,86.40
2023-06-12T23:33:11.892Z,86.30
2023-06-12T23:35:38.814Z,86.20
2023-06-12T23:38:07.110Z,86.00
2023-06-12T23:40:33.947Z,86.00
2023-06-12T23:43:00.799Z,86.20
2023-06-12T23:45:27.552Z,86.20
2023-06-12T23:47:54.345Z,86.40
2023-06-12T23:50:21.245Z,86.60
2023-06-12T23:52:47.980Z,86.60
2023-06-12T23:55:14.985Z,86.70
2023-06-12T23:57:42.688Z,86.90
